createdAt,value
2019-04-27T00:02:26.323Z,13.63
2019-04-27T00:10:33.513Z,16.80
2019-04-27T00:13:03.910Z,15.33
2019-04-27T00:15:48.166Z,15.70
2019-04-27T00:18:34.264Z,13.80
2019-04-27T00:21:20.286Z,14.07
2019-04-27T00:26:20.748Z,21.70
2019-04-27T00:28:47.016Z,15.70
2019-04-27T00:31:13.321Z,17.70
2019-04-27T00:33:39.592Z,16.40
2019-04-27T00:39:03.506Z,16.27
2019-04-27T00:44:09.368Z,14.67
2019-04-27T00:46:35.669Z,15.43
2019-04-27T00:49:03.577Z,16.20
2019-04-27T00:51:30.112Z,17.20
2019-04-27T00:53:56.463Z,15.10
2019-04-27T00:56:42.984Z,18.03
2019-04-27T00:59:28.971Z,15.70
2019-04-27T01:02:15.007Z,16.07
2019-04-27T01:07:43.455Z,15.50
2019-04-27T01:10:10.462Z,14.67
2019-04-27T01:12:36.725Z,15.43
2019-04-27T01:17:53.288Z,16.10
2019-04-27T01:20:19.530Z,17.67
2019-04-27T01:22:45.792Z,15.93
2019-04-27T01:31:44.197Z,15.87
2019-04-27T01:34:10.457Z,17.13
2019-04-27T01:36:36.720Z,17.77
2019-04-27T01:39:44.270Z,16.90
2019-04-27T01:42:10.693Z,15.97
2019-04-27T01:44:36.992Z,15.70
2019-04-27T01:47:03.245Z,16.10
2019-04-27T01:49:29.662Z,16.20
2019-04-27T01:51:55.932Z,16.33
2019-04-27T01:57:00.973Z,15.17
2019-04-27T01:59:28.258Z,15.87
2019-04-27T02:05:03.459Z,18.93
2019-04-27T02:07:30.129Z,16.43
2019-04-27T02:09:56.455Z,19.40
2019-04-27T02:12:22.692Z,15.53
2019-04-27T02:14:49.216Z,16.70
2019-04-27T02:17:15.469Z,17.30
2019-04-27T02:19:41.716Z,16.30
2019-04-27T02:22:08.576Z,15.73
2019-04-27T02:24:36.118Z,16.63
2019-04-27T02:27:02.373Z,18.97
2019-04-27T02:29:48.778Z,15.57
2019-04-27T02:37:30.203Z,15.07
2019-04-27T02:39:55.745Z,16.67
2019-04-27T02:44:59.902Z,25.10
2019-04-27T02:47:29.465Z,17.40
2019-04-27T02:49:55.731Z,18.77
2019-04-27T02:52:41.744Z,17.17
2019-04-27T02:55:09.554Z,17.90
2019-04-27T02:57:36.270Z,16.87
2019-04-27T03:00:24.053Z,18.43
2019-04-27T03:05:39.937Z,16.27
2019-04-27T03:08:06.062Z,16.07
2019-04-27T03:10:32.315Z,16.70
2019-04-27T03:16:05.930Z,15.37
2019-04-27T03:18:51.936Z,15.37
2019-04-27T03:23:52.403Z,17.43
2019-04-27T03:26:38.992Z,18.13
2019-04-27T03:29:06.625Z,20.63
2019-04-27T03:31:33.290Z,16.93
2019-04-27T03:34:05.144Z,15.70
2019-04-27T03:36:31.675Z,18.93
2019-04-27T03:38:59.913Z,13.83
2019-04-27T03:41:25.656Z,18.93
2019-04-27T03:43:51.894Z,20.13
2019-04-27T03:46:20.403Z,18.80
2019-04-27T03:48:46.307Z,15.63
2019-04-27T03:54:22.224Z,22.60
2019-04-27T04:00:01.712Z,17.23
2019-04-27T04:05:19.823Z,15.60
2019-04-27T04:07:46.237Z,14.57
2019-04-27T04:18:19.613Z,15.80
2019-04-27T04:20:46.335Z,16.43
2019-04-27T04:23:12.584Z,14.90
2019-04-27T04:25:41.019Z,14.93
2019-04-27T04:28:09.272Z,15.30
2019-04-27T04:30:35.236Z,14.47
2019-04-27T04:33:01.513Z,14.53
2019-04-27T04:35:32.605Z,15.50
2019-04-27T04:37:56.063Z,14.33
2019-04-27T04:43:29.676Z,15.47
2019-04-27T04:46:15.698Z,12.20
2019-04-27T04:48:41.920Z,14.03
2019-04-27T04:51:10.139Z,14.67
2019-04-27T04:56:39.218Z,13.33
2019-04-27T04:59:05.492Z,11.20
2019-04-27T05:01:31.753Z,11.93
2019-04-27T05:03:59.044Z,12.10
2019-04-27T05:06:26.240Z,12.13
2019-04-27T05:09:33.766Z,13.53
2019-04-27T05:12:00.025Z,9.90
2019-04-27T05:14:28.910Z,9.23
2019-04-27T05:16:55.291Z,16.13
2019-04-27T05:19:21.622Z,12.07
2019-04-27T05:21:49.129Z,12.03
2019-04-27T05:26:44.661Z,11.00
2019-04-27T05:29:10.928Z,14.67
2019-04-27T05:31:38.827Z,11.63
2019-04-27T05:34:06.862Z,11.93
2019-04-27T05:36:33.526Z,12.20
2019-04-27T05:38:59.872Z,13.43
2019-04-27T05:41:26.338Z,10.30
2019-04-27T05:44:13.046Z,11.73
2019-04-27T05:46:59.149Z,13.73
2019-04-27T05:49:45.174Z,11.63
2019-04-27T05:52:31.160Z,10.83
2019-04-27T05:57:51.711Z,12.03
2019-04-27T06:03:14.824Z,11.97
2019-04-27T06:05:41.072Z,14.03
2019-04-27T06:08:08.723Z,12.67
2019-04-27T06:11:16.797Z,13.83
2019-04-27T06:13:43.050Z,12.27
2019-04-27T06:16:09.576Z,15.17
2019-04-27T06:18:39.131Z,11.63
2019-04-27T06:23:40.717Z,13.50
2019-04-27T06:26:09.167Z,11.50
2019-04-27T06:28:35.138Z,12.10
2019-04-27T06:31:01.420Z,11.43
2019-04-27T06:33:33.882Z,11.60
2019-04-27T06:35:55.844Z,13.00
2019-04-27T06:38:22.110Z,11.97
2019-04-27T06:40:49.024Z,15.00
2019-04-27T06:45:44.602Z,13.83
2019-04-27T06:48:10.868Z,13.80
2019-04-27T06:50:38.860Z,12.80
2019-04-27T06:53:05.319Z,12.00
2019-04-27T06:56:12.892Z,19.00
2019-04-27T06:58:40.788Z,12.67
2019-04-27T07:01:09.512Z,14.10
2019-04-27T07:03:35.500Z,12.70
2019-04-27T07:06:01.750Z,15.20
2019-04-27T07:08:28.659Z,12.87
2019-04-27T07:10:56.243Z,13.17
2019-04-27T07:13:22.572Z,13.10
2019-04-27T07:15:48.857Z,13.53
2019-04-27T07:18:15.142Z,14.53
2019-04-27T07:20:41.407Z,14.27
2019-04-27T07:23:09.409Z,12.60
2019-04-27T07:25:35.879Z,13.43
2019-04-27T07:28:02.135Z,14.63
2019-04-27T07:30:28.827Z,13.40
2019-04-27T07:32:56.564Z,12.23
2019-04-27T07:35:22.817Z,13.77
2019-04-27T07:37:49.100Z,14.23
2019-04-27T07:40:15.366Z,14.60
2019-04-27T07:50:24.512Z,13.27
2019-04-27T07:52:50.782Z,16.07
2019-04-27T07:55:18.560Z,15.67
2019-04-27T07:57:45.199Z,15.80
2019-04-27T08:00:11.643Z,12.53
2019-04-27T08:02:38.993Z,9.90
2019-04-27T08:05:06.091Z,13.17
2019-04-27T08:07:32.342Z,12.13
2019-04-27T08:10:19.336Z,7.50
2019-04-27T08:12:46.494Z,7.00
2019-04-27T08:15:12.744Z,8.00
2019-04-27T08:17:42.389Z,8.60
2019-04-27T08:20:49.133Z,7.03
2019-04-27T08:23:15.538Z,8.70
2019-04-27T08:25:41.817Z,9.37
2019-04-27T08:31:15.442Z,8.80
2019-04-27T08:33:41.706Z,9.03
2019-04-27T08:36:08.978Z,7.20
2019-04-27T08:38:36.149Z,6.83
2019-04-27T08:41:02.486Z,6.63
2019-04-27T08:43:29.072Z,5.40
2019-04-27T08:46:00.113Z,6.70
2019-04-27T08:48:44.778Z,6.73
2019-04-27T08:51:11.028Z,5.00
2019-04-27T08:53:37.276Z,7.57
2019-04-27T08:56:03.524Z,6.07
2019-04-27T08:58:29.801Z,6.57
2019-04-27T09:00:56.057Z,6.77
2019-04-27T09:03:22.330Z,6.03
2019-04-27T09:05:49.485Z,5.53
2019-04-27T09:11:43.721Z,6.47
2019-04-27T09:14:29.724Z,8.37
2019-04-27T09:17:15.753Z,5.50
2019-04-27T09:20:01.754Z,6.70
2019-04-27T09:22:28.935Z,5.30
2019-04-27T09:24:56.183Z,6.27
2019-04-27T09:27:22.481Z,6.83
2019-04-27T09:29:50.008Z,5.30
2019-04-27T09:34:51.391Z,5.23
2019-04-27T09:37:17.678Z,5.87
2019-04-27T09:39:45.909Z,6.30
2019-04-27T09:42:12.117Z,4.33
2019-04-27T09:44:38.421Z,4.20
2019-04-27T09:47:06.107Z,3.50
2019-04-27T09:49:32.845Z,5.27
2019-04-27T09:51:59.104Z,4.40
2019-04-27T09:54:27.082Z,4.93
2019-04-27T09:56:53.521Z,6.90
2019-04-27T09:59:19.781Z,3.00
2019-04-27T10:01:46.497Z,3.87
2019-04-27T10:04:12.905Z,8.30
2019-04-27T10:06:39.170Z,3.37
2019-04-27T10:12:02.038Z,3.27
2019-04-27T10:14:28.311Z,5.30
2019-04-27T10:16:55.781Z,3.20
2019-04-27T10:19:31.114Z,4.37
2019-04-27T10:21:50.903Z,4.30
2019-04-27T10:24:17.186Z,4.43
2019-04-27T10:26:43.853Z,4.63
2019-04-27T10:29:11.594Z,5.63
2019-04-27T10:31:37.881Z,3.63
2019-04-27T10:34:05.875Z,3.10
2019-04-27T10:36:52.056Z,4.23
2019-04-27T10:39:18.320Z,3.40
2019-04-27T10:41:46.168Z,6.20
2019-04-27T10:46:50.803Z,3.50
2019-04-27T10:49:17.052Z,3.90
2019-04-27T10:51:43.354Z,6.50
2019-04-27T10:54:09.636Z,6.20
2019-04-27T10:56:36.824Z,2.73
2019-04-27T11:01:57.872Z,4.37
2019-04-27T11:04:46.207Z,3.00
2019-04-27T11:10:01.451Z,3.80
2019-04-27T11:12:28.729Z,7.17
2019-04-27T11:14:55.362Z,5.47
2019-04-27T11:17:21.870Z,3.23
2019-04-27T11:19:48.594Z,3.90
2019-04-27T11:22:15.986Z,4.03
2019-04-27T11:24:43.070Z,3.10
2019-04-27T11:27:09.533Z,3.43
2019-04-27T11:29:36.117Z,6.17
2019-04-27T11:32:17.303Z,5.60
2019-04-27T11:35:03.352Z,3.73
2019-04-27T11:37:49.375Z,5.23
2019-04-27T11:43:16.630Z,3.17
2019-04-27T11:45:42.917Z,2.77
2019-04-27T11:48:09.172Z,3.33
2019-04-27T11:50:35.876Z,2.80
2019-04-27T11:53:03.575Z,3.10
2019-04-27T11:55:29.815Z,3.53
2019-04-27T11:57:56.097Z,6.57
2019-04-27T12:03:36.205Z,4.03
2019-04-27T12:06:02.468Z,5.70
2019-04-27T12:08:28.728Z,3.40
2019-04-27T12:10:55.691Z,3.23
2019-04-27T12:13:23.131Z,4.83
2019-04-27T12:15:49.376Z,3.50
2019-04-27T12:18:15.628Z,4.63
2019-04-27T12:20:41.852Z,3.20
2019-04-27T12:23:08.116Z,5.93
2019-04-27T12:25:37.090Z,5.37
2019-04-27T12:28:22.384Z,4.33
2019-04-27T12:31:09.138Z,5.20
2019-04-27T12:33:35.788Z,4.40
2019-04-27T12:36:03.606Z,4.57
2019-04-27T12:38:29.848Z,5.20
2019-04-27T12:40:56.557Z,5.63
2019-04-27T12:43:24.290Z,3.10
2019-04-27T12:45:50.548Z,3.63
2019-04-27T12:48:16.778Z,6.03
2019-04-27T12:50:43.146Z,4.13
2019-04-27T12:53:29.155Z,4.00
2019-04-27T12:56:16.646Z,4.13
2019-04-27T13:01:36.942Z,3.90
2019-04-27T13:04:03.293Z,4.20
2019-04-27T13:06:29.569Z,4.77
2019-04-27T13:08:55.924Z,3.73
2019-04-27T13:11:22.982Z,3.33
2019-04-27T13:13:50.326Z,3.87
2019-04-27T13:16:16.720Z,4.13
2019-04-27T13:18:42.943Z,3.83
2019-04-27T13:21:09.194Z,4.53
2019-04-27T13:23:37.147Z,6.63
2019-04-27T13:26:16.859Z,3.43
2019-04-27T13:28:43.120Z,3.73
2019-04-27T13:31:09.389Z,6.47
2019-04-27T13:33:36.455Z,3.93
2019-04-27T13:36:07.278Z,5.20
2019-04-27T13:38:31.980Z,4.37
2019-04-27T13:41:27.752Z,4.37
2019-04-27T13:43:46.212Z,4.30
2019-04-27T13:49:05.971Z,4.67
2019-04-27T13:54:18.527Z,4.83
2019-04-27T13:56:34.537Z,2.40
2019-04-27T13:59:01.209Z,6.13
2019-04-27T14:01:28.985Z,3.43
2019-04-27T14:03:55.217Z,4.03
2019-04-27T14:06:21.477Z,2.60
2019-04-27T14:08:47.739Z,2.73
2019-04-27T14:11:14.881Z,3.77
2019-04-27T14:13:41.144Z,3.60
2019-04-27T14:16:08.740Z,3.23
2019-04-27T14:18:35.569Z,3.43
2019-04-27T14:21:01.816Z,4.27
2019-04-27T14:23:48.468Z,2.97
2019-04-27T14:26:14.770Z,4.30
2019-04-27T14:28:41.079Z,3.37
2019-04-27T14:31:08.980Z,7.47
2019-04-27T14:36:03.470Z,2.67
2019-04-27T14:38:51.315Z,4.10
2019-04-27T14:41:19.162Z,3.63
2019-04-27T14:46:45.086Z,6.23
2019-04-27T14:49:11.355Z,3.57
2019-04-27T14:51:39.873Z,4.50
2019-04-27T14:56:33.878Z,5.30
2019-04-27T14:59:00.179Z,5.37
2019-04-27T15:01:26.537Z,4.90
2019-04-27T15:03:52.918Z,3.63
2019-04-27T15:06:19.818Z,3.97
2019-04-27T15:08:49.051Z,6.10
2019-04-27T15:11:19.208Z,4.27
2019-04-27T15:16:11.722Z,5.27
2019-04-27T15:21:25.669Z,6.90
2019-04-27T15:23:51.958Z,6.13
2019-04-27T15:34:45.035Z,10.23
2019-04-27T15:40:49.320Z,4.97
2019-04-27T15:46:03.715Z,5.57
2019-04-27T15:48:38.508Z,6.50
2019-04-27T15:51:14.746Z,4.70
2019-04-27T15:53:33.525Z,5.83
2019-04-27T15:56:01.796Z,8.00
2019-04-27T16:01:43.990Z,8.07
2019-04-27T16:04:11.291Z,7.50
2019-04-27T16:06:38.568Z,9.90
2019-04-27T16:09:46.128Z,8.67
2019-04-27T16:12:12.897Z,5.93
2019-04-27T16:14:44.022Z,6.80
2019-04-27T16:17:22.171Z,5.63
2019-04-27T16:20:08.213Z,4.23
2019-04-27T16:22:34.463Z,6.37
2019-04-27T16:25:03.697Z,7.23
2019-04-27T16:27:41.819Z,4.37
2019-04-27T16:30:11.587Z,7.93
2019-04-27T16:32:36.424Z,5.10
2019-04-27T16:35:24.235Z,9.97
2019-04-27T16:38:10.321Z,7.53
2019-04-27T16:40:36.710Z,8.90
2019-04-27T16:43:02.966Z,8.17
2019-04-27T16:45:29.249Z,8.43
2019-04-27T16:47:56.478Z,10.43
2019-04-27T16:53:05.014Z,8.27
2019-04-27T16:55:34.148Z,7.33
2019-04-27T16:57:59.962Z,3.97
2019-04-27T17:00:30.217Z,7.10
2019-04-27T17:02:59.841Z,9.43
2019-04-27T17:05:30.927Z,6.83
2019-04-27T17:07:52.887Z,6.03
2019-04-27T17:10:25.427Z,9.77
2019-04-27T17:12:41.335Z,7.87
2019-04-27T17:12:48.632Z,8.93
2019-04-27T17:18:35.555Z,8.00
2019-04-27T17:21:15.812Z,7.60
2019-04-27T17:23:31.619Z,4.53
2019-04-27T17:26:21.844Z,4.97
2019-04-27T17:29:10.951Z,6.63
2019-04-27T17:34:25.365Z,7.53
2019-04-27T17:36:54.701Z,6.87
2019-04-27T17:39:23.476Z,10.57
2019-04-27T17:41:52.063Z,6.20
2019-04-27T17:44:19.267Z,7.33
2019-04-27T17:46:49.444Z,7.07
2019-04-27T17:49:12.581Z,4.27
2019-04-27T17:51:42.952Z,6.70
2019-04-27T17:54:11.143Z,4.13
2019-04-27T17:59:03.338Z,4.97
2019-04-27T18:01:31.928Z,5.60
2019-04-27T18:06:32.409Z,4.47
2019-04-27T18:09:00.850Z,5.93
2019-04-27T18:11:28.773Z,7.70
2019-04-27T18:16:34.034Z,5.23
2019-04-27T18:29:08.395Z,4.90
2019-04-27T18:31:34.673Z,5.80
2019-04-27T18:34:00.935Z,6.10
2019-04-27T18:36:27.229Z,6.80
2019-04-27T18:38:53.464Z,7.37
2019-04-27T18:41:19.763Z,5.63
2019-04-27T18:43:51.087Z,7.87
2019-04-27T18:46:14.741Z,6.20
2019-04-27T18:51:42.545Z,5.80
2019-04-27T18:54:08.783Z,6.13
2019-04-27T18:56:40.066Z,7.37
2019-04-27T18:59:03.205Z,7.40
2019-04-27T19:01:29.462Z,6.27
2019-04-27T19:03:55.736Z,5.63
2019-04-27T19:06:22.038Z,6.80
2019-04-27T19:08:48.794Z,7.13
2019-04-27T19:11:16.419Z,6.07
2019-04-27T19:13:42.720Z,7.97
2019-04-27T19:16:09.138Z,10.23
2019-04-27T19:18:35.394Z,8.43
2019-04-27T19:21:01.639Z,5.93
2019-04-27T19:26:22.269Z,6.60
2019-04-27T19:29:08.674Z,6.20
2019-04-27T19:34:28.774Z,7.67
2019-04-27T19:36:54.993Z,5.93
2019-04-27T19:39:40.993Z,8.23
2019-04-27T19:42:07.236Z,11.00
2019-04-27T19:44:33.484Z,7.87
2019-04-27T19:47:00.340Z,7.73
2019-04-27T19:49:31.244Z,9.93
2019-04-27T19:51:56.106Z,6.57
2019-04-27T19:54:22.375Z,9.67
2019-04-27T19:56:50.005Z,6.43
2019-04-27T19:59:38.085Z,8.43
2019-04-27T20:07:35.106Z,7.47
2019-04-27T20:12:40.951Z,9.77
2019-04-27T20:15:48.436Z,7.23
2019-04-27T20:18:14.688Z,7.33
2019-04-27T20:20:41.257Z,7.47
2019-04-27T20:23:07.506Z,7.00
2019-04-27T20:25:33.771Z,7.30
2019-04-27T20:28:00.906Z,10.73
2019-04-27T20:30:28.214Z,7.10
2019-04-27T20:32:54.464Z,6.73
2019-04-27T20:35:21.969Z,9.80
2019-04-27T20:37:48.977Z,7.07
2019-04-27T20:40:15.329Z,6.93
2019-04-27T20:42:41.690Z,7.80
2019-04-27T20:45:49.222Z,8.47
2019-04-27T20:48:15.471Z,6.80
2019-04-27T20:50:41.730Z,6.67
2019-04-27T20:55:55.651Z,7.77
2019-04-27T20:58:21.909Z,7.63
2019-04-27T21:00:48.218Z,6.80
2019-04-27T21:03:34.240Z,7.13
2019-04-27T21:06:21.213Z,8.23
2019-04-27T21:08:47.593Z,10.97
2019-04-27T21:11:13.946Z,10.63
2019-04-27T21:13:40.215Z,6.73
2019-04-27T21:16:06.465Z,9.63
2019-04-27T21:18:32.718Z,8.40
2019-04-27T21:20:58.962Z,8.60
2019-04-27T21:23:25.213Z,7.57
2019-04-27T21:25:53.543Z,7.80
2019-04-27T21:28:33.077Z,8.40
2019-04-27T21:30:59.346Z,8.03
2019-04-27T21:33:25.612Z,8.90
2019-04-27T21:35:51.873Z,8.70
2019-04-27T21:38:18.125Z,10.67
2019-04-27T21:41:04.124Z,8.37
2019-04-27T21:43:30.386Z,7.33
2019-04-27T21:45:56.640Z,7.30
2019-04-27T21:48:22.904Z,8.97
2019-04-27T21:50:49.173Z,7.53
2019-04-27T21:56:11.224Z,7.90
2019-04-27T21:58:37.579Z,8.73
2019-04-27T22:03:58.489Z,7.43
2019-04-27T22:06:24.735Z,8.77
2019-04-27T22:08:51.277Z,7.23
2019-04-27T22:11:19.146Z,11.77
2019-04-27T22:13:45.391Z,6.53
2019-04-27T22:16:13.068Z,6.90
2019-04-27T22:18:41.536Z,8.80
2019-04-27T22:21:07.985Z,8.63
2019-04-27T22:23:53.974Z,11.20
2019-04-27T22:26:21.342Z,10.27
2019-04-27T22:28:49.525Z,9.57
2019-04-27T22:33:52.512Z,8.10
2019-04-27T22:36:18.811Z,8.50
2019-04-27T22:38:45.055Z,8.70
2019-04-27T22:41:31.444Z,9.50
2019-04-27T22:44:17.460Z,8.20
2019-04-27T22:47:03.669Z,9.07
2019-04-27T22:49:31.273Z,9.33
2019-04-27T22:51:58.080Z,8.50
2019-04-27T22:54:24.317Z,9.87
2019-04-27T23:02:40.821Z,9.20
2019-04-27T23:05:20.949Z,7.73
2019-04-27T23:07:47.272Z,6.97
2019-04-27T23:10:13.522Z,7.03
2019-04-27T23:12:41.818Z,5.57
2019-04-27T23:23:38.241Z,8.63
2019-04-27T23:26:04.521Z,7.33
2019-04-27T23:28:31.381Z,6.87
2019-04-27T23:31:20.536Z,7.87
2019-04-27T23:39:51.675Z,7.20
2019-04-27T23:42:17.940Z,9.47
2019-04-27T23:44:44.663Z,6.73
2019-04-27T23:47:10.910Z,9.10
2019-04-27T23:49:37.160Z,8.67
2019-04-27T23:54:52.015Z,6.50
2019-04-27T23:57:18.294Z,7.47
2019-04-27T23:59:44.543Z,7.70
